< < Back
Terminal Aerodrome Forecast


Current Version              Previous Versions:   1  2  3  4  5  6  7  8  9  

Terminal Aerodrome Forecast

497
FTUS44 KBMX 282340
TAFTCL
TAF
KTCL 282340Z 2900/2924 19005KT P6SM SKC
     FM290500 00000KT P6SM SKC=



Latest METAR

323
SAUS70 KWBC 292300
MTRTCL
METAR KTCL 292253Z 33009G23KT 300V010 10SM TS SCT018 BKN033 OVC050 20/17
A2994 RMK AO2 PK WND 35030/2237 WSHFT 2233 LTG DSNT ALQDS
TSB04 SLP136 T02000167


USA.gov is the U.S. government's official web portal to all federal, state and local government web resources and services.